Time;durP1;ratioP1;P1;durP2;ratioP2;P2;SDS_P1;SDS_P2;PMS_P1;PMS_P2;Temp;Humidity;BMP_temperature;BMP_pressure;BME280_temperature;BME280_humidity;BME280_pressure;Samples;Min_cycle;Max_cycle;Signal;HPM_P1;HPM_P2
2023/01/29 00:02:10;;;;;;;175.15;50.70;;;;;;;-1.49;86.45;102557.50;5157819;27;20064;-51
2023/01/29 00:04:37;;;;;;;171.20;51.58;;;;;;;-1.48;86.45;102561.81;5139464;27;20130;-50
2023/01/29 00:07:04;;;;;;;190.00;52.30;;;;;;;-1.44;85.64;102565.22;5157778;27;20073;-50
2023/01/29 00:09:31;;;;;;;169.75;51.55;;;;;;;-1.45;85.34;102558.31;5157089;27;20050;-51
2023/01/29 00:11:57;;;;;;;171.82;51.53;;;;;;;-1.45;85.77;102555.69;5157872;27;20042;-51
2023/01/29 00:14:26;;;;;;;198.52;53.67;;;;;;;-1.47;86.32;102555.72;5157432;27;20046;-50
2023/01/29 00:16:52;;;;;;;186.10;52.47;;;;;;;-1.49;86.56;102554.91;5157574;27;20038;-52
2023/01/29 00:19:19;;;;;;;174.70;53.28;;;;;;;-1.60;87.20;102549.03;5157737;27;20061;-52
2023/01/29 00:21:46;;;;;;;182.95;52.08;;;;;;;-1.64;87.35;102543.03;5157721;27;20046;-55
2023/01/29 00:24:13;;;;;;;186.25;53.03;;;;;;;-1.58;87.11;102539.47;5157551;27;20041;-51
2023/01/29 00:26:41;;;;;;;170.52;50.92;;;;;;;-1.50;86.10;102542.75;5157171;27;20039;-52
2023/01/29 00:29:08;;;;;;;186.25;52.67;;;;;;;-1.58;86.43;102542.09;5157119;27;20050;-50
2023/01/29 00:31:34;;;;;;;186.60;50.90;;;;;;;-1.49;86.24;102541.88;5157214;27;20078;-50
2023/01/29 00:34:02;;;;;;;177.75;52.60;;;;;;;-1.48;86.06;102540.97;5157360;27;20074;-50
2023/01/29 00:36:29;;;;;;;168.52;48.85;;;;;;;-1.48;85.45;102534.94;5143517;27;20099;-50
2023/01/29 00:38:57;;;;;;;172.75;50.95;;;;;;;-1.47;85.13;102534.06;5156229;27;20080;-51
2023/01/29 00:47:02;;;;;;;172.65;48.88;;;;;;;-1.52;86.35;102541.94;5156594;27;20039;-50
2023/01/29 00:49:29;;;;;;;181.20;50.33;;;;;;;-1.55;86.40;102540.28;5156990;27;20043;-51
2023/01/29 00:52:28;;;;;;;167.25;49.28;;;;;;;-1.53;86.29;102535.00;5156895;27;20051;-50
2023/01/29 00:54:43;;;;;;;178.88;49.63;;;;;;;-1.56;86.03;102528.13;5156591;27;20039;-50
2023/01/29 00:57:10;;;;;;;171.38;46.65;;;;;;;-1.55;86.06;102531.59;5156593;27;20567;-51
2023/01/29 00:59:37;;;;;;;171.23;49.35;;;;;;;-1.50;85.82;102534.09;5156151;27;20126;-50
2023/01/29 01:04:50;;;;;;;174.15;48.13;;;;;;;-1.52;85.08;102538.50;5156460;27;20055;-50
2023/01/29 01:07:17;;;;;;;168.48;49.78;;;;;;;-1.53;84.83;102539.38;5156639;27;20095;-52
2023/01/29 01:12:31;;;;;;;177.70;48.55;;;;;;;-1.59;85.29;102543.81;5156212;27;20066;-50
2023/01/29 01:14:58;;;;;;;173.63;48.70;;;;;;;-1.64;85.37;102545.63;5156510;27;20051;-50
2023/01/29 01:17:25;;;;;;;176.18;49.25;;;;;;;-1.56;85.80;102550.72;5156168;27;20111;-50
2023/01/29 01:19:51;;;;;;;173.65;50.03;;;;;;;-1.56;85.98;102548.09;5155715;27;20096;-50
2023/01/29 01:22:18;;;;;;;171.90;49.67;;;;;;;-1.61;86.57;102542.97;5156382;27;20047;-50
2023/01/29 01:24:45;;;;;;;183.27;52.88;;;;;;;-1.67;87.12;102545.72;5156421;27;20043;-50
2023/01/29 01:27:12;;;;;;;180.65;50.72;;;;;;;-1.71;87.56;102536.28;5156140;27;20082;-50
2023/01/29 01:29:39;;;;;;;192.60;53.22;;;;;;;-1.72;87.75;102534.53;5137385;27;20042;-51
2023/01/29 01:32:06;;;;;;;175.50;50.70;;;;;;;-1.65;87.94;102536.13;5155853;27;20049;-53
2023/01/29 01:34:34;;;;;;;183.00;52.97;;;;;;;-1.65;87.88;102530.94;5155960;27;20095;-53
2023/01/29 01:37:01;;;;;;;180.18;50.92;;;;;;;-1.70;88.13;102522.34;5156212;27;20042;-52
2023/01/29 01:39:28;;;;;;;179.82;50.35;;;;;;;-1.86;89.09;102516.59;5155966;27;20039;-52
2023/01/29 01:41:55;;;;;;;177.23;49.70;;;;;;;-1.97;90.11;102505.53;5155843;27;20046;-52
2023/01/29 01:44:52;;;;;;;188.88;52.53;;;;;;;-1.84;90.08;102495.75;5156205;27;20074;-53
2023/01/29 01:47:26;;;;;;;186.75;52.05;;;;;;;-1.81;89.73;102504.34;5155437;27;20050;-51
2023/01/29 01:50:00;;;;;;;178.63;51.42;;;;;;;-1.83;90.31;102494.88;5155806;27;20126;-51
2023/01/29 01:52:30;;;;;;;169.98;50.55;;;;;;;-1.81;90.35;102503.50;5155930;27;20047;-53
2023/01/29 01:54:59;;;;;;;177.15;49.20;;;;;;;-1.78;89.99;102498.25;5155548;27;20510;-53
2023/01/29 01:57:27;;;;;;;172.35;50.55;;;;;;;-1.76;89.92;102501.69;5155663;27;20050;-52
2023/01/29 02:00:02;;;;;;;185.25;50.92;;;;;;;-1.72;89.47;102511.13;5154814;27;20125;-52
2023/01/29 02:11:24;;;;;;;162.93;47.72;;;;;;;-1.74;87.78;102505.94;5090457;28;20064;-49
2023/01/29 02:13:52;;;;;;;174.27;50.88;;;;;;;-1.75;88.45;102509.44;5090597;28;20051;-51
2023/01/29 02:16:24;;;;;;;178.07;52.63;;;;;;;-1.84;89.36;102503.56;5090720;28;20048;-51
2023/01/29 02:18:51;;;;;;;177.05;51.47;;;;;;;-1.75;88.72;102504.25;5090470;28;20460;-50
2023/01/29 02:21:46;;;;;;;167.40;51.38;;;;;;;-1.72;88.16;102515.47;5090671;28;20040;-52
2023/01/29 02:24:38;;;;;;;175.65;50.33;;;;;;;-1.78;88.57;102511.25;5090270;28;20049;-51
2023/01/29 02:27:18;;;;;;;184.03;54.30;;;;;;;-1.79;88.83;102514.72;5101670;28;20071;-52
2023/01/29 02:30:18;;;;;;;173.18;50.33;;;;;;;-1.85;88.84;102526.13;5110832;28;20123;-52
2023/01/29 02:33:00;;;;;;;161.90;49.05;;;;;;;-1.79;88.42;102527.75;5110166;28;20048;-51
2023/01/29 02:35:38;;;;;;;174.13;50.50;;;;;;;-1.87;88.50;102537.44;5106398;28;20059;-52
2023/01/29 02:38:45;;;;;;;169.63;49.65;;;;;;;-1.82;88.50;102546.00;5126056;28;20043;-50
2023/01/29 02:41:23;;;;;;;174.07;50.53;;;;;;;-1.85;89.01;102546.94;5130770;27;20071;-50
2023/01/29 02:43:57;;;;;;;150.52;48.35;;;;;;;-1.78;89.01;102547.69;5130942;27;20051;-49
2023/01/29 02:49:16;;;;;;;168.65;50.65;;;;;;;-1.68;89.26;102557.00;5111117;27;20385;-51
2023/01/29 02:51:54;;;;;;;161.07;49.53;;;;;;;-1.70;89.10;102557.94;5111462;28;20044;-51
2023/01/29 02:54:30;;;;;;;160.85;48.90;;;;;;;-1.56;88.21;102555.91;5111058;28;20097;-55
2023/01/29 02:56:59;;;;;;;175.25;52.40;;;;;;;-1.59;88.56;102541.19;5109995;28;20089;-50
2023/01/29 02:59:37;;;;;;;164.63;50.85;;;;;;;-1.60;88.54;102543.84;5110172;28;20043;-52
2023/01/29 03:02:11;;;;;;;169.60;50.95;;;;;;;-1.56;88.51;102533.34;5111073;28;20040;-52
2023/01/29 03:04:45;;;;;;;168.05;49.95;;;;;;;-1.56;89.13;102530.75;5111023;28;20044;-52
2023/01/29 03:07:50;;;;;;;161.70;49.72;;;;;;;-1.57;88.82;102539.41;5120335;28;20043;-50
2023/01/29 03:10:16;;;;;;;156.10;49.03;;;;;;;-1.61;88.84;102529.13;5131024;27;20408;-50
2023/01/29 03:12:48;;;;;;;164.20;50.20;;;;;;;-1.62;88.49;102516.97;5130463;28;20055;-52
2023/01/29 03:15:25;;;;;;;149.68;46.15;;;;;;;-1.61;88.33;102519.56;5131389;27;20072;-52
2023/01/29 03:18:15;;;;;;;159.27;48.72;;;;;;;-1.69;88.63;102518.88;5130097;28;20067;-53
2023/01/29 03:20:48;;;;;;;174.02;50.00;;;;;;;-1.65;88.46;102524.88;5131259;27;20096;-52
2023/01/29 03:32:05;;;;;;;148.30;46.63;;;;;;;-1.71;87.83;102533.66;5110023;28;20516;-52
2023/01/29 03:34:40;;;;;;;165.00;50.50;;;;;;;-1.77;87.92;102531.16;5110341;28;20398;-52
2023/01/29 03:37:33;;;;;;;157.80;48.20;;;;;;;-1.81;88.51;102532.13;5110202;28;20131;-51
2023/01/29 03:40:05;;;;;;;161.05;49.83;;;;;;;-1.83;88.32;102541.72;5110384;28;20443;-51
2023/01/29 03:43:00;;;;;;;160.35;50.05;;;;;;;-1.89;88.50;102536.59;5110381;28;20056;-51
2023/01/29 03:46:07;;;;;;;159.75;48.05;;;;;;;-1.88;88.85;102533.97;5110238;28;20050;-51
2023/01/29 03:48:38;;;;;;;152.98;47.70;;;;;;;-1.93;89.50;102541.00;5109670;28;20078;-50
2023/01/29 03:51:23;;;;;;;;;;;;;;;-1.88;89.68;102527.94;5110347;28;20040;-53
2023/01/29 03:54:03;;;;;;;149.32;44.88;;;;;;;-1.97;89.88;102528.97;5110271;28;19920;-50
2023/01/29 03:56:59;;;;;;;152.82;47.53;;;;;;;-2.07;90.33;102524.81;5109916;28;20046;-51
2023/01/29 04:02:34;;;;;;;164.63;52.05;;;;;;;-2.10;90.54;102520.53;5110947;27;20347;-49
2023/01/29 04:05:15;;;;;;;156.90;49.90;;;;;;;-2.11;90.63;102521.44;5111407;28;20393;-51
2023/01/29 04:08:03;;;;;;;151.70;47.10;;;;;;;-2.10;90.55;102523.13;5111297;28;20054;-52
2023/01/29 04:10:34;;;;;;;149.18;46.33;;;;;;;-2.12;90.44;102523.16;5111347;28;20044;-51
2023/01/29 04:13:06;;;;;;;153.80;47.97;;;;;;;-2.12;90.41;102509.31;5111119;28;20058;-51
2023/01/29 04:15:39;;;;;;;154.20;46.60;;;;;;;-2.13;90.58;102502.38;5109796;28;20040;-51
2023/01/29 04:18:07;;;;;;;149.00;47.55;;;;;;;-2.09;90.18;102510.97;5110837;28;20048;-51
2023/01/29 04:20:46;;;;;;;165.05;47.70;;;;;;;-2.11;90.15;102511.03;5110923;28;20052;-52
2023/01/29 04:23:28;;;;;;;147.82;46.60;;;;;;;-2.14;89.84;102501.53;5110890;28;20048;-50
2023/01/29 04:26:18;;;;;;;146.88;48.00;;;;;;;-2.19;89.92;102500.75;5111049;28;20500;-51
2023/01/29 04:28:54;;;;;;;149.27;48.65;;;;;;;-2.24;90.64;102486.97;5111163;28;20048;-49
2023/01/29 04:31:27;;;;;;;147.55;46.22;;;;;;;-2.21;90.21;102478.28;5110977;28;20047;-50
2023/01/29 04:37:21;;;;;;;156.50;48.28;;;;;;;-2.17;90.30;102477.31;5104159;27;20408;-52
2023/01/29 04:39:58;;;;;;;135.20;45.42;;;;;;;-2.30;90.53;102476.69;5131010;27;20045;-52
2023/01/29 04:42:33;;;;;;;154.50;47.75;;;;;;;-2.27;90.14;102475.78;5130620;27;20069;-51
2023/01/29 04:45:26;;;;;;;149.23;47.20;;;;;;;-2.31;90.26;102477.56;5131767;27;20039;-52
2023/01/29 04:48:06;;;;;;;143.82;44.33;;;;;;;-2.15;89.96;102483.34;5131230;27;20100;-52
2023/01/29 04:50:39;;;;;;;134.25;45.65;;;;;;;-2.19;90.07;102484.31;5131353;27;20044;-51
2023/01/29 04:53:28;;;;;;;145.05;46.28;;;;;;;-2.22;89.85;102473.94;5131729;27;20047;-49
2023/01/29 04:56:19;;;;;;;148.85;45.78;;;;;;;-2.21;90.01;102478.28;5129784;27;20444;-50
2023/01/29 04:58:54;;;;;;;158.32;45.47;;;;;;;-2.24;90.32;102467.94;5110649;28;20121;-52
2023/01/29 05:01:24;;;;;;;130.45;43.47;;;;;;;-2.27;90.30;102461.06;5110622;28;20054;-51
2023/01/29 05:03:54;;;;;;;155.32;47.63;;;;;;;-2.25;90.42;102464.47;5110530;28;20043;-52
2023/01/29 05:06:23;;;;;;;138.98;44.65;;;;;;;-2.24;90.42;102463.56;5114102;28;20043;-51
2023/01/29 05:08:53;;;;;;;156.85;49.38;;;;;;;-2.21;90.13;102470.47;5131261;28;20088;-50
2023/01/29 05:11:21;;;;;;;155.55;47.05;;;;;;;-2.24;90.58;102463.56;5131250;27;20047;-52
2023/01/29 05:13:48;;;;;;;140.48;45.35;;;;;;;-2.25;90.25;102468.84;5131135;27;20515;-52
2023/01/29 05:16:24;;;;;;;144.23;46.20;;;;;;;-2.19;89.58;102466.94;5131165;27;20043;-51
2023/01/29 05:18:52;;;;;;;142.10;44.97;;;;;;;-2.28;90.44;102463.69;5130859;27;20096;-52
2023/01/29 05:21:21;;;;;;;138.20;43.97;;;;;;;-2.19;90.34;102459.16;5131123;27;20515;-53
2023/01/29 05:24:09;;;;;;;136.43;44.28;;;;;;;-2.21;90.09;102450.53;5130913;27;20047;-52
2023/01/29 05:29:23;;;;;;;136.85;42.60;;;;;;;-2.28;90.61;102443.72;5110040;28;20048;-53
2023/01/29 05:31:50;;;;;;;128.57;41.33;;;;;;;-2.24;90.57;102453.19;5110101;28;20078;-53
2023/01/29 05:34:17;;;;;;;148.98;45.38;;;;;;;-2.24;90.63;102450.56;5110050;28;20048;-52
2023/01/29 05:36:43;;;;;;;136.15;44.17;;;;;;;-2.30;90.50;102453.31;5110225;28;20044;-53
2023/01/29 05:39:10;;;;;;;137.15;44.00;;;;;;;-2.32;90.77;102449.88;5110093;28;20055;-53
2023/01/29 05:41:37;;;;;;;143.77;44.80;;;;;;;-2.20;90.27;102446.16;5110196;28;20443;-53
2023/01/29 05:44:04;;;;;;;135.82;44.45;;;;;;;-2.12;90.47;102447.75;5110133;28;20516;-53
2023/01/29 05:46:31;;;;;;;134.80;42.88;;;;;;;-2.13;90.28;102443.44;5104986;28;20066;-54
2023/01/29 05:48:58;;;;;;;137.10;44.28;;;;;;;-2.16;90.43;102440.91;5096271;28;20050;-53
2023/01/29 05:51:25;;;;;;;135.45;43.60;;;;;;;-2.15;90.75;102437.44;5096049;28;20043;-53
2023/01/29 05:53:52;;;;;;;138.52;44.13;;;;;;;-2.18;91.02;102442.69;5096468;28;20048;-53
2023/01/29 05:56:19;;;;;;;131.50;42.92;;;;;;;-2.03;91.00;102445.84;5096143;28;20062;-53
2023/01/29 05:58:46;;;;;;;137.20;42.97;;;;;;;-2.03;91.26;102443.25;5095944;28;20068;-53
2023/01/29 06:01:16;;;;;;;126.78;42.33;;;;;;;-1.99;90.76;102445.75;5095679;28;20052;-53
2023/01/29 06:03:43;;;;;;;145.32;43.83;;;;;;;-1.94;90.52;102446.50;5096053;28;20064;-52
2023/01/29 06:06:09;;;;;;;137.73;43.92;;;;;;;-1.97;90.66;102453.53;5097649;28;20066;-51
2023/01/29 06:08:36;;;;;;;132.13;42.42;;;;;;;-2.08;90.68;102448.53;5116613;28;20040;-51
2023/01/29 06:11:07;;;;;;;130.43;43.13;;;;;;;-1.99;90.53;102463.97;5116375;28;20142;-50
2023/01/29 06:13:34;;;;;;;139.27;43.42;;;;;;;-1.89;91.03;102471.56;5116310;28;20044;-50
2023/01/29 06:16:05;;;;;;;147.85;43.60;;;;;;;-1.91;90.77;102470.75;5116205;28;20538;-52
2023/01/29 06:18:32;;;;;;;127.20;43.13;;;;;;;-1.83;90.52;102467.09;5115967;27;20043;-53
2023/01/29 06:21:01;;;;;;;136.20;42.55;;;;;;;-1.75;90.38;102482.56;5116169;27;20096;-51
2023/01/29 06:23:28;;;;;;;142.88;43.20;;;;;;;-1.67;90.05;102475.47;5116051;28;20043;-51
2023/01/29 06:25:59;;;;;;;150.85;44.85;;;;;;;-1.60;89.49;102484.84;5114822;28;20040;-52
2023/01/29 06:28:26;;;;;;;143.80;43.80;;;;;;;-1.50;89.52;102493.31;5095772;28;20044;-53
2023/01/29 06:30:56;;;;;;;137.02;43.50;;;;;;;-1.49;89.01;102496.75;5095423;28;20047;-51
2023/01/29 06:33:24;;;;;;;142.80;46.05;;;;;;;-1.42;89.02;102500.94;5095231;28;20051;-50
2023/01/29 06:35:56;;;;;;;140.18;44.38;;;;;;;-1.38;88.68;102505.22;5094053;28;20044;-52
2023/01/29 06:38:24;;;;;;;145.88;44.20;;;;;;;-1.34;88.77;102501.63;5089886;28;20048;-51
2023/01/29 06:40:51;;;;;;;134.40;41.08;;;;;;;-1.41;89.00;102502.66;5094157;28;20071;-51
2023/01/29 06:43:19;;;;;;;136.40;42.25;;;;;;;-1.39;88.92;102500.88;5094556;28;20044;-53
2023/01/29 06:45:52;;;;;;;149.35;44.42;;;;;;;-1.39;88.74;102506.94;5094867;28;20475;-52
2023/01/29 06:48:19;;;;;;;145.57;43.65;;;;;;;-1.42;88.55;102501.81;5094922;28;20144;-52
2023/01/29 06:50:46;;;;;;;144.60;42.78;;;;;;;-1.37;88.38;102499.09;5094836;28;20527;-52
2023/01/29 06:53:13;;;;;;;140.52;45.45;;;;;;;-1.43;88.85;102501.84;5094889;28;20493;-52
2023/01/29 06:55:39;;;;;;;141.63;44.88;;;;;;;-1.55;89.07;102493.41;5095186;28;20048;-52
2023/01/29 06:58:08;;;;;;;133.23;41.53;;;;;;;-1.49;89.34;102494.16;5074543;28;20056;-52
2023/01/29 07:00:36;;;;;;;136.32;42.45;;;;;;;-1.50;89.04;102482.03;5074146;28;20516;-51
2023/01/29 07:03:03;;;;;;;132.18;41.78;;;;;;;-1.60;89.23;102478.75;5074577;28;20037;-50
2023/01/29 07:05:30;;;;;;;139.68;42.47;;;;;;;-1.60;89.06;102466.63;5074080;28;20040;-50
2023/01/29 07:07:57;;;;;;;139.07;41.72;;;;;;;-1.58;89.13;102475.25;5090902;28;20093;-50
2023/01/29 07:10:23;;;;;;;148.07;43.42;;;;;;;-1.66;89.16;102479.75;5094753;28;20052;-51
2023/01/29 07:12:50;;;;;;;152.77;42.63;;;;;;;-1.69;89.68;102482.44;5094405;28;20036;-51
2023/01/29 07:15:19;;;;;;;146.98;43.47;;;;;;;-1.74;89.70;102474.72;5094461;28;20058;-50
2023/01/29 07:18:04;;;;;;;142.45;42.58;;;;;;;-1.64;89.49;102477.97;5094705;28;20098;-53
2023/01/29 07:20:30;;;;;;;134.45;40.65;;;;;;;-1.60;89.21;102490.06;5094700;28;20055;-50
2023/01/29 07:22:57;;;;;;;148.77;42.75;;;;;;;-1.51;88.76;102495.94;5094589;28;20040;-52
2023/01/29 07:25:24;;;;;;;150.35;43.92;;;;;;;-1.52;89.12;102496.84;5094500;28;20093;-52
2023/01/29 07:27:51;;;;;;;140.50;41.85;;;;;;;-1.46;88.95;102492.34;5092977;28;20121;-51
2023/01/29 07:30:18;;;;;;;129.82;41.15;;;;;;;-1.34;88.80;102491.22;5094268;28;20501;-51
2023/01/29 07:32:45;;;;;;;139.93;42.17;;;;;;;-1.30;88.72;102499.81;5093912;28;20500;-52
2023/01/29 07:35:12;;;;;;;135.88;42.70;;;;;;;-1.29;88.15;102486.78;5093790;28;20093;-51
2023/01/29 07:37:38;;;;;;;137.88;40.40;;;;;;;-1.68;89.26;102497.16;5094501;28;20493;-51
2023/01/29 07:40:10;;;;;;;136.35;40.50;;;;;;;-1.38;88.18;102493.03;5094393;28;20136;-51
2023/01/29 07:42:38;;;;;;;130.35;41.22;;;;;;;-1.33;88.18;102484.25;5094295;28;20052;-53
2023/01/29 07:45:06;;;;;;;128.60;40.67;;;;;;;-1.28;88.28;102470.25;5094090;28;20055;-53
2023/01/29 07:47:33;;;;;;;126.75;41.15;;;;;;;-1.31;88.72;102479.88;5093890;28;20046;-52
2023/01/29 07:49:59;;;;;;;139.38;42.00;;;;;;;-1.29;88.33;102478.97;5093888;28;20063;-51
2023/01/29 07:52:29;;;;;;;140.63;41.80;;;;;;;-1.30;87.95;102477.25;5093963;28;20055;-53
2023/01/29 07:54:56;;;;;;;135.93;41.78;;;;;;;-1.21;87.59;102484.00;5094035;28;20055;-51
2023/01/29 07:57:23;;;;;;;142.52;40.85;;;;;;;-1.25;87.92;102487.56;5093417;28;20393;-51
2023/01/29 07:59:50;;;;;;;128.85;40.67;;;;;;;-1.10;87.46;102481.13;5093123;28;20509;-51
2023/01/29 08:02:17;;;;;;;136.35;41.72;;;;;;;-1.08;87.53;102472.38;5092762;28;20056;-51
2023/01/29 08:04:44;;;;;;;136.20;41.00;;;;;;;-1.10;87.62;102457.69;5093933;28;20051;-52
2023/01/29 08:07:11;;;;;;;145.95;43.20;;;;;;;-1.07;87.83;102460.22;5103671;28;20435;-53
2023/01/29 08:09:38;;;;;;;135.30;42.30;;;;;;;-1.32;88.22;102475.56;5113865;28;20512;-52
2023/01/29 08:12:04;;;;;;;143.63;43.00;;;;;;;-1.36;88.21;102470.44;5112515;28;20035;-51
2023/01/29 08:14:31;;;;;;;132.30;41.42;;;;;;;-1.25;88.45;102469.34;5114149;28;20059;-50
2023/01/29 08:16:58;;;;;;;130.27;40.00;;;;;;;-1.19;88.55;102477.00;5113945;28;20050;-53
2023/01/29 08:19:24;;;;;;;149.90;43.90;;;;;;;-1.25;88.88;102478.00;5113752;28;20554;-51
2023/01/29 08:21:51;;;;;;;135.80;39.65;;;;;;;-1.39;88.73;102461.81;5114127;28;20568;-51
2023/01/29 08:24:18;;;;;;;144.07;43.47;;;;;;;-1.29;87.77;102462.47;5113881;28;20092;-52
2023/01/29 08:26:44;;;;;;;133.57;40.80;;;;;;;-1.34;88.41;102462.59;5105526;28;20448;-51
2023/01/29 08:29:11;;;;;;;148.15;42.80;;;;;;;-1.57;88.88;102466.53;5093096;28;20093;-51
2023/01/29 08:31:38;;;;;;;139.30;42.78;;;;;;;-1.51;88.69;102468.19;5093483;28;20055;-51
2023/01/29 08:34:05;;;;;;;133.20;41.05;;;;;;;-1.72;90.19;102466.88;5093317;28;20094;-53
2023/01/29 08:36:31;;;;;;;139.43;42.47;;;;;;;-1.67;90.03;102472.84;5093030;28;20139;-52
2023/01/29 08:38:58;;;;;;;146.75;42.72;;;;;;;-1.89;91.38;102476.78;5080287;28;20082;-52
2023/01/29 08:41:24;;;;;;;135.88;41.80;;;;;;;-1.64;90.62;102470.16;5073258;28;20040;-52
2023/01/29 08:43:51;;;;;;;141.77;41.85;;;;;;;-1.41;89.94;102468.81;5073232;28;20052;-51
2023/01/29 08:46:18;;;;;;;138.95;42.38;;;;;;;-1.22;89.05;102470.13;5073036;28;20040;-53
2023/01/29 08:48:44;;;;;;;131.70;41.67;;;;;;;-1.25;88.73;102472.78;5072456;28;20064;-52
2023/01/29 08:51:11;;;;;;;134.35;42.58;;;;;;;-1.16;88.99;102475.19;5072671;28;20448;-50
2023/01/29 08:53:38;;;;;;;144.00;41.63;;;;;;;-1.13;88.70;102469.03;5072694;28;20378;-52
2023/01/29 08:56:05;;;;;;;136.75;40.55;;;;;;;-0.97;88.28;102457.34;5072762;28;20041;-51
2023/01/29 08:58:32;;;;;;;138.68;41.78;;;;;;;-1.12;88.00;102470.75;5072723;28;20053;-52
2023/01/29 09:01:08;;;;;;;124.82;39.28;;;;;;;-1.20;88.56;102470.06;5072529;28;20051;-53
2023/01/29 09:03:35;;;;;;;133.77;40.95;;;;;;;-1.03;88.29;102474.88;5072754;28;20076;-53
2023/01/29 09:06:02;;;;;;;143.30;40.65;;;;;;;-0.87;87.87;102459.75;5073581;28;20487;-52
2023/01/29 09:08:29;;;;;;;137.52;40.65;;;;;;;-0.73;87.24;102462.00;5113553;28;20047;-54
2023/01/29 09:10:58;;;;;;;138.93;40.55;;;;;;;-0.72;86.52;102438.50;5113087;28;20063;-52
2023/01/29 09:13:25;;;;;;;138.57;41.13;;;;;;;-0.71;87.07;102440.22;5113281;28;20456;-51
2023/01/29 09:15:52;;;;;;;134.07;40.42;;;;;;;-0.86;86.73;102441.44;5113270;28;20051;-51
2023/01/29 09:18:20;;;;;;;139.30;42.83;;;;;;;-0.75;86.89;102443.78;5113375;28;20047;-51
2023/01/29 09:20:47;;;;;;;142.70;42.15;;;;;;;-0.63;86.99;102434.81;5113356;28;20158;-50
2023/01/29 09:23:14;;;;;;;126.57;39.47;;;;;;;-0.71;86.87;102439.34;5116681;28;20055;-52
2023/01/29 09:25:42;;;;;;;136.00;40.50;;;;;;;-0.69;86.74;102440.16;5116894;28;20048;-51
2023/01/29 09:28:08;;;;;;;136.60;40.58;;;;;;;-0.63;86.40;102440.00;5096999;28;20048;-50
2023/01/29 09:30:36;;;;;;;142.63;43.22;;;;;;;-0.62;86.29;102436.50;5096615;28;20071;-50
2023/01/29 09:33:04;;;;;;;138.82;40.78;;;;;;;-0.51;86.14;102431.00;5096460;28;20485;-52
2023/01/29 09:35:32;;;;;;;153.65;43.00;;;;;;;-0.42;86.30;102429.03;5096103;28;20066;-53
2023/01/29 09:38:00;;;;;;;147.93;41.33;;;;;;;-0.33;85.36;102433.09;5096585;28;20055;-51
2023/01/29 09:40:45;;;;;;;133.88;40.80;;;;;;;-0.35;85.45;102421.84;5096444;28;20044;-51
2023/01/29 09:43:17;;;;;;;138.60;39.17;;;;;;;-0.49;86.00;102419.66;5096588;28;20048;-50
2023/01/29 09:45:53;;;;;;;148.95;40.78;;;;;;;-0.35;85.47;102421.00;5096333;28;20052;-50
2023/01/29 09:48:25;;;;;;;150.85;41.10;;;;;;;-0.26;84.91;102405.94;5095867;28;20042;-53
2023/01/29 09:50:54;;;;;;;;;;;;;;;-0.23;85.22;102411.09;5096608;28;20396;-53
2023/01/29 09:53:54;;;;;;;148.48;38.38;;;;;;;-0.10;84.44;102405.53;5096078;28;19920;-52
2023/01/29 09:56:27;;;;;;;148.93;41.00;;;;;;;0.06;84.48;102412.00;5095770;28;20123;-53
2023/01/29 09:58:57;;;;;;;142.65;40.00;;;;;;;0.01;84.42;102400.84;5095846;28;20402;-53
2023/01/29 10:01:53;;;;;;;135.43;39.58;;;;;;;0.17;84.01;102402.09;5096012;28;20117;-52
2023/01/29 10:04:59;;;;;;;148.15;40.88;;;;;;;0.31;83.85;102391.25;5095695;28;20113;-52
2023/01/29 10:07:57;;;;;;;146.93;40.53;;;;;;;0.35;83.00;102392.84;5107970;28;20047;-53
2023/01/29 10:10:47;;;;;;;160.43;41.70;;;;;;;0.21;82.39;102394.19;5116215;28;20493;-52
2023/01/29 10:13:32;;;;;;;138.40;38.60;;;;;;;0.22;82.27;102396.75;5116402;27;20067;-53
2023/01/29 10:16:30;;;;;;;148.02;39.67;;;;;;;0.25;82.19;102403.63;5116027;28;20431;-52
2023/01/29 10:19:24;;;;;;;145.45;39.88;;;;;;;0.38;81.87;102403.22;5115784;28;20048;-51
2023/01/29 10:22:07;;;;;;;141.60;37.72;;;;;;;0.49;81.16;102407.22;5098173;27;20048;-53
2023/01/29 10:24:37;;;;;;;151.77;40.17;;;;;;;0.51;80.47;102401.06;5094977;28;20067;-50
2023/01/29 10:27:14;;;;;;;147.40;39.05;;;;;;;0.66;81.17;102406.72;5093845;28;20064;-52
2023/01/29 10:29:43;;;;;;;147.43;38.80;;;;;;;0.51;80.39;102401.06;5095055;28;20063;-49
2023/01/29 10:32:16;;;;;;;158.43;41.40;;;;;;;0.37;81.28;102408.47;5094243;28;20063;-51
2023/01/29 10:34:50;;;;;;;153.18;39.97;;;;;;;0.48;81.14;102408.16;5095261;28;20056;-51
2023/01/29 10:37:23;;;;;;;162.45;41.63;;;;;;;0.47;81.30;102401.19;5106418;28;20043;-52
2023/01/29 10:39:50;;;;;;;157.50;39.33;;;;;;;0.82;80.97;102407.03;5086381;28;20436;-50
2023/01/29 10:42:29;;;;;;;144.93;38.47;;;;;;;0.77;79.59;102397.59;5074990;28;20425;-50
2023/01/29 10:45:23;;;;;;;151.68;39.67;;;;;;;0.93;80.30;102386.66;5073938;28;20056;-50
2023/01/29 10:48:29;;;;;;;153.18;38.90;;;;;;;0.94;80.14;102383.97;5079575;28;20044;-52
2023/01/29 10:51:10;;;;;;;151.73;40.40;;;;;;;0.88;79.51;102384.19;5095103;28;20055;-52
2023/01/29 10:56:47;;;;;;;151.93;42.15;;;;;;;1.06;78.89;102366.19;5110966;27;20375;-52
2023/01/29 10:59:53;;;;;;;147.15;41.47;;;;;;;1.09;78.52;102372.16;5110214;28;20040;-51
2023/01/29 11:02:21;;;;;;;157.20;39.05;;;;;;;1.09;79.65;102369.56;5110782;28;20046;-51
2023/01/29 11:04:48;;;;;;;162.65;40.45;;;;;;;1.00;79.44;102366.38;5110688;28;20036;-51
2023/01/29 11:07:18;;;;;;;147.82;41.10;;;;;;;0.97;79.64;102351.69;5110647;28;20040;-50
2023/01/29 11:09:56;;;;;;;152.80;38.05;;;;;;;0.85;79.52;102347.69;5110844;28;20052;-51
2023/01/29 11:12:29;;;;;;;158.80;41.78;;;;;;;0.56;82.02;102349.56;5111005;28;20047;-52
2023/01/29 11:15:13;;;;;;;136.50;36.15;;;;;;;0.70;81.26;102340.41;5110675;28;20065;-51
2023/01/29 11:18:02;;;;;;;140.05;38.47;;;;;;;0.51;81.25;102340.13;5110908;28;20542;-50
2023/01/29 11:20:30;;;;;;;155.13;38.78;;;;;;;0.56;81.84;102343.44;5110721;28;20101;-51
2023/01/29 11:22:58;;;;;;;143.48;40.47;;;;;;;0.63;80.41;102337.13;5110804;28;20044;-52
2023/01/29 11:25:24;;;;;;;157.35;38.45;;;;;;;0.63;81.21;102337.13;5110653;28;20044;-52
2023/01/29 11:27:54;;;;;;;160.40;40.17;;;;;;;0.58;80.95;102336.41;5094153;28;20109;-49
2023/01/29 11:30:32;;;;;;;140.52;38.35;;;;;;;0.71;80.94;102336.84;5090246;28;20055;-52
2023/01/29 11:33:19;;;;;;;127.45;35.40;;;;;;;0.80;80.62;102335.72;5089901;28;20052;-53
2023/01/29 11:35:46;;;;;;;141.48;36.30;;;;;;;0.82;80.13;102333.88;5089943;28;20071;-54
2023/01/29 11:38:28;;;;;;;141.13;37.42;;;;;;;0.90;79.59;102326.66;5090048;28;20044;-52
2023/01/29 11:41:05;;;;;;;123.70;34.53;;;;;;;1.01;78.35;102327.13;5090075;28;20064;-53
2023/01/29 11:43:32;;;;;;;150.90;37.67;;;;;;;0.95;79.78;102314.28;5089789;28;20062;-53
2023/01/29 11:46:03;;;;;;;138.30;39.53;;;;;;;0.84;79.35;102319.03;5089728;28;20037;-53
2023/01/29 11:48:53;;;;;;;137.45;37.55;;;;;;;0.81;80.13;102301.69;5089795;28;20066;-52
2023/01/29 11:51:27;;;;;;;149.65;36.80;;;;;;;0.83;79.92;102299.03;5089323;28;20068;-52
2023/01/29 11:53:58;;;;;;;148.38;37.97;;;;;;;0.78;80.34;102291.34;5089507;28;20041;-50
2023/01/29 11:56:33;;;;;;;150.18;38.13;;;;;;;0.83;79.68;102283.34;5095197;28;20047;-51
2023/01/29 11:59:03;;;;;;;137.75;37.13;;;;;;;0.90;79.32;102280.47;5109186;28;20440;-52
2023/01/29 12:01:35;;;;;;;139.40;38.42;;;;;;;0.83;79.71;102273.75;5109771;28;20043;-52
2023/01/29 12:04:11;;;;;;;144.05;38.35;;;;;;;1.02;79.72;102275.72;5109728;28;20097;-52
2023/01/29 12:06:43;;;;;;;153.75;37.97;;;;;;;1.02;79.95;102266.13;5102182;28;20071;-51
2023/01/29 12:09:16;;;;;;;155.90;39.85;;;;;;;1.07;78.94;102269.41;5096321;28;20093;-50
2023/01/29 12:11:43;;;;;;;151.95;38.80;;;;;;;1.07;78.75;102258.94;5096169;28;20044;-51
2023/01/29 12:14:32;;;;;;;146.88;38.67;;;;;;;1.14;77.81;102259.59;5095957;28;20075;-52